createdAt,value
2018-06-14T00:00:57.124Z,23.10
2018-06-14T00:01:57.125Z,22.10
2018-06-14T00:02:57.150Z,21.10
2018-06-14T00:03:57.106Z,23.70
2018-06-14T00:04:57.101Z,22.60
2018-06-14T00:05:57.100Z,28.40
2018-06-14T00:06:57.095Z,26.70
2018-06-14T00:07:57.085Z,23.90
2018-06-14T00:08:57.081Z,22.20
2018-06-14T00:09:57.087Z,24.20
2018-06-14T00:10:57.072Z,22.20
2018-06-14T00:11:57.065Z,23.30
2018-06-14T00:12:57.059Z,20.30
2018-06-14T00:13:57.052Z,24.70
2018-06-14T00:14:57.056Z,24.60
2018-06-14T00:15:57.054Z,24.80
2018-06-14T00:16:57.039Z,23.40
2018-06-14T00:17:57.031Z,22.50
2018-06-14T00:18:57.027Z,26.10
2018-06-14T00:19:57.017Z,21.00
2018-06-14T00:20:57.017Z,25.30
2018-06-14T00:21:57.010Z,22.30
2018-06-14T00:22:57.011Z,25.30
2018-06-14T00:23:56.995Z,24.50
2018-06-14T00:24:56.991Z,19.60
2018-06-14T00:25:56.987Z,21.60
2018-06-14T00:26:57.011Z,22.20
2018-06-14T00:27:56.977Z,21.50
2018-06-14T00:28:56.971Z,23.50
2018-06-14T00:29:56.965Z,24.40
2018-06-14T00:30:56.958Z,22.50
2018-06-14T00:31:56.988Z,22.20
2018-06-14T00:32:56.947Z,26.70
2018-06-14T00:33:56.986Z,22.70
2018-06-14T00:34:56.935Z,26.70
2018-06-14T00:35:56.934Z,24.20
2018-06-14T00:36:56.919Z,23.80
2018-06-14T00:37:56.915Z,24.10
2018-06-14T00:38:56.907Z,26.00
2018-06-14T00:39:56.904Z,22.20
2018-06-14T00:40:56.897Z,27.30
2018-06-14T00:41:56.896Z,28.40
2018-06-14T00:42:56.885Z,27.30
2018-06-14T00:43:56.878Z,23.70
2018-06-14T00:44:56.886Z,23.70
2018-06-14T00:45:56.865Z,24.30
2018-06-14T00:46:56.861Z,24.20
2018-06-14T00:47:56.856Z,22.20
2018-06-14T00:48:56.853Z,23.00
2018-06-14T00:49:56.851Z,26.50
2018-06-14T00:50:56.873Z,23.70
2018-06-14T00:51:56.831Z,25.50
2018-06-14T00:52:56.833Z,23.90
2018-06-14T00:53:56.818Z,27.00
2018-06-14T00:54:56.818Z,28.00
2018-06-14T00:55:56.812Z,25.90
2018-06-14T00:56:56.800Z,26.70
2018-06-14T00:57:56.818Z,24.40
2018-06-14T00:58:56.787Z,22.00
2018-06-14T00:59:56.781Z,24.60
2018-06-14T01:00:56.789Z,21.50
2018-06-14T01:01:56.768Z,21.00
2018-06-14T01:02:56.763Z,21.30
2018-06-14T01:03:56.756Z,21.50
2018-06-14T01:04:56.756Z,23.50
2018-06-14T01:05:56.749Z,21.30
2018-06-14T01:06:56.741Z,25.20
2018-06-14T01:07:56.731Z,24.50
2018-06-14T01:08:56.727Z,23.70
2018-06-14T01:09:56.719Z,20.10
2018-06-14T01:10:56.716Z,21.20
2018-06-14T01:11:56.713Z,20.40
2018-06-14T01:12:56.715Z,23.20
2018-06-14T01:13:56.729Z,22.80
2018-06-14T01:14:56.718Z,21.90
2018-06-14T01:15:56.684Z,21.40
2018-06-14T01:16:56.681Z,24.30
2018-06-14T01:17:56.680Z,22.70
2018-06-14T01:18:56.667Z,21.40
2018-06-14T01:19:56.672Z,26.00
2018-06-14T01:20:56.678Z,23.70
2018-06-14T01:21:56.646Z,22.80
2018-06-14T01:22:56.640Z,22.50
2018-06-14T01:23:56.635Z,22.40
2018-06-14T01:24:56.628Z,19.60
2018-06-14T01:25:56.623Z,20.60
2018-06-14T01:26:56.626Z,21.50
2018-06-14T01:27:56.610Z,20.20
2018-06-14T01:28:56.622Z,23.50
2018-06-14T01:29:56.599Z,22.00
2018-06-14T01:30:56.592Z,21.30
2018-06-14T01:31:56.588Z,20.70
2018-06-14T01:32:56.587Z,19.90
2018-06-14T01:33:56.574Z,22.40
2018-06-14T01:34:56.573Z,21.30
2018-06-14T01:35:56.562Z,23.70
2018-06-14T01:36:56.557Z,22.50
2018-06-14T01:37:56.585Z,22.40
2018-06-14T01:38:56.543Z,20.90
2018-06-14T01:39:56.538Z,22.70
2018-06-14T01:40:56.533Z,24.90
2018-06-14T01:41:56.530Z,27.10
2018-06-14T01:42:56.528Z,24.20
2018-06-14T01:43:56.512Z,25.20
2018-06-14T01:44:56.532Z,23.50
2018-06-14T01:45:56.508Z,20.10
2018-06-14T01:46:56.507Z,22.80
2018-06-14T01:47:56.490Z,20.30
2018-06-14T01:48:56.494Z,22.00
2018-06-14T01:49:56.485Z,20.60
2018-06-14T01:50:56.474Z,19.80
2018-06-14T01:51:56.483Z,19.30
2018-06-14T01:52:56.464Z,22.10
2018-06-14T01:53:56.462Z,23.40
2018-06-14T01:54:56.446Z,22.60
2018-06-14T01:55:56.444Z,20.10
2018-06-14T01:56:56.441Z,19.70
2018-06-14T01:57:56.431Z,21.90
2018-06-14T01:58:56.428Z,21.10
2018-06-14T01:59:56.412Z,22.00
2018-06-14T02:00:56.409Z,19.50
2018-06-14T02:01:56.406Z,19.70
2018-06-14T02:02:56.408Z,20.10
2018-06-14T02:03:56.393Z,20.00
2018-06-14T02:04:56.381Z,23.70
2018-06-14T02:05:56.375Z,19.50
2018-06-14T02:06:56.378Z,19.00
2018-06-14T02:07:56.363Z,21.60
2018-06-14T02:08:56.366Z,19.40
2018-06-14T02:09:56.350Z,21.20
2018-06-14T02:10:56.350Z,23.10
2018-06-14T02:11:56.345Z,24.00
2018-06-14T02:12:56.335Z,24.10
2018-06-14T02:13:56.326Z,27.90
2018-06-14T02:14:56.316Z,22.90
2018-06-14T02:15:56.341Z,27.10
2018-06-14T02:16:56.305Z,23.70
2018-06-14T02:17:56.303Z,23.60
2018-06-14T02:18:56.299Z,19.40
2018-06-14T02:19:56.285Z,23.00
2018-06-14T02:20:56.281Z,20.80
2018-06-14T02:21:56.273Z,21.20
2018-06-14T02:22:56.288Z,22.70
2018-06-14T02:23:56.273Z,19.90
2018-06-14T02:24:56.256Z,22.20
2018-06-14T02:25:56.252Z,24.00
2018-06-14T02:26:56.240Z,21.90
2018-06-14T02:27:56.241Z,21.70
2018-06-14T02:28:56.227Z,19.20
2018-06-14T02:29:56.233Z,21.20
2018-06-14T02:30:56.227Z,19.00
2018-06-14T02:31:56.215Z,19.20
2018-06-14T02:32:56.203Z,19.20
2018-06-14T02:33:56.198Z,16.00
2018-06-14T02:34:56.189Z,16.40
2018-06-14T02:35:56.182Z,16.80
2018-06-14T02:36:56.182Z,19.50
2018-06-14T02:37:56.183Z,15.20
2018-06-14T02:38:56.166Z,18.10
2018-06-14T02:39:56.163Z,16.10
2018-06-14T02:40:56.149Z,16.50
2018-06-14T02:41:56.146Z,18.80
2018-06-14T02:42:56.135Z,17.80
2018-06-14T02:43:56.135Z,15.50
2018-06-14T02:44:56.132Z,17.90
2018-06-14T02:45:56.116Z,18.00
2018-06-14T02:46:56.109Z,15.90
2018-06-14T02:47:56.102Z,14.50
2018-06-14T02:48:56.105Z,15.00
2018-06-14T02:49:56.097Z,18.00
2018-06-14T02:50:56.080Z,15.00
2018-06-14T02:51:56.079Z,13.10
2018-06-14T02:52:56.077Z,15.20
2018-06-14T02:53:56.070Z,15.20
2018-06-14T02:54:56.054Z,16.10
2018-06-14T02:55:56.048Z,14.20
2018-06-14T02:56:56.048Z,15.80
2018-06-14T02:57:56.043Z,16.60
2018-06-14T02:58:56.029Z,17.20
2018-06-14T02:59:56.029Z,14.70
2018-06-14T03:00:56.014Z,16.40
2018-06-14T03:01:56.020Z,19.30
2018-06-14T03:02:56.005Z,17.50
2018-06-14T03:03:55.992Z,14.40
2018-06-14T03:04:55.990Z,16.60
2018-06-14T03:05:55.985Z,13.60
2018-06-14T03:06:55.976Z,15.20
2018-06-14T03:07:55.990Z,14.10
2018-06-14T03:08:55.970Z,15.50
2018-06-14T03:09:55.946Z,14.00
2018-06-14T03:10:55.940Z,18.30
2018-06-14T03:11:55.938Z,18.90
2018-06-14T03:12:55.932Z,14.30
2018-06-14T03:13:55.920Z,15.10
2018-06-14T03:14:55.912Z,15.60
2018-06-14T03:15:55.921Z,15.90
2018-06-14T03:16:55.900Z,15.20
2018-06-14T03:17:55.890Z,14.50
2018-06-14T03:18:55.896Z,15.70
2018-06-14T03:19:55.887Z,16.80
2018-06-14T03:20:55.865Z,16.30
2018-06-14T03:21:55.860Z,14.80
2018-06-14T03:22:55.854Z,14.60
2018-06-14T03:23:55.845Z,14.40
2018-06-14T03:24:55.838Z,14.20
2018-06-14T03:25:55.839Z,15.10
2018-06-14T03:26:55.822Z,15.50
2018-06-14T03:27:55.825Z,13.90
2018-06-14T03:28:55.815Z,17.40
2018-06-14T03:29:55.801Z,14.20
2018-06-14T03:30:55.800Z,19.10
2018-06-14T03:31:55.794Z,16.80
2018-06-14T03:32:55.786Z,17.80
2018-06-14T03:33:55.781Z,18.00
2018-06-14T03:34:55.775Z,16.30
2018-06-14T03:35:55.758Z,17.30
2018-06-14T03:36:55.752Z,15.60
2018-06-14T03:37:55.750Z,16.50
2018-06-14T03:38:55.737Z,18.10
2018-06-14T03:39:55.734Z,15.30
2018-06-14T03:40:55.730Z,15.30
2018-06-14T03:41:55.726Z,15.70
2018-06-14T03:42:55.706Z,15.20
2018-06-14T03:43:55.699Z,14.40
2018-06-14T03:44:55.691Z,15.40
2018-06-14T03:45:55.694Z,16.20
2018-06-14T03:46:55.677Z,14.00
2018-06-14T03:47:55.674Z,16.90
2018-06-14T03:48:55.663Z,18.30
2018-06-14T03:49:55.671Z,20.50
2018-06-14T03:50:55.654Z,15.30
2018-06-14T03:51:55.676Z,16.10
2018-06-14T03:52:55.633Z,16.60
2018-06-14T03:53:55.628Z,15.70
2018-06-14T03:54:55.624Z,14.60
2018-06-14T03:55:55.615Z,15.00
2018-06-14T03:56:55.614Z,17.60
2018-06-14T03:57:55.607Z,14.70
2018-06-14T03:58:55.592Z,16.90
2018-06-14T03:59:55.593Z,14.40
2018-06-14T04:00:55.580Z,19.90
2018-06-14T04:01:55.577Z,14.00
2018-06-14T04:02:55.564Z,14.80
2018-06-14T04:03:55.612Z,14.80
2018-06-14T04:04:55.554Z,16.40
2018-06-14T04:05:55.547Z,15.20
2018-06-14T04:06:55.540Z,12.80
2018-06-14T04:07:55.529Z,16.60
2018-06-14T04:08:55.526Z,15.40
2018-06-14T04:09:55.515Z,13.90
2018-06-14T04:10:55.508Z,14.40
2018-06-14T04:11:55.499Z,14.60
2018-06-14T04:12:55.502Z,16.20
2018-06-14T04:13:55.489Z,14.80
2018-06-14T04:14:55.478Z,15.70
2018-06-14T04:15:55.471Z,14.90
2018-06-14T04:16:55.467Z,14.90
2018-06-14T04:17:55.473Z,16.90
2018-06-14T04:18:55.508Z,18.40
2018-06-14T04:19:55.447Z,14.10
2018-06-14T04:20:55.439Z,14.80
2018-06-14T04:21:55.430Z,14.50
2018-06-14T04:22:55.429Z,14.50
2018-06-14T04:23:55.426Z,15.20
2018-06-14T04:24:55.417Z,14.20
2018-06-14T04:25:55.407Z,13.80
2018-06-14T04:26:55.401Z,11.60
2018-06-14T04:27:55.397Z,11.10
2018-06-14T04:28:55.391Z,15.80
2018-06-14T04:29:55.388Z,10.60
2018-06-14T04:30:55.383Z,10.80
2018-06-14T04:31:55.378Z,13.30
2018-06-14T04:32:55.376Z,12.20
2018-06-14T04:33:55.372Z,14.00
2018-06-14T04:34:55.372Z,15.00
2018-06-14T04:35:55.369Z,11.10
2018-06-14T04:36:55.362Z,10.10
2018-06-14T04:37:55.361Z,10.10
2018-06-14T04:38:55.357Z,10.90
2018-06-14T04:39:55.357Z,9.90
2018-06-14T04:40:55.364Z,10.20
2018-06-14T04:41:55.356Z,10.30
2018-06-14T04:42:55.358Z,13.70
2018-06-14T04:43:55.357Z,11.80
2018-06-14T04:44:55.347Z,13.00
2018-06-14T04:45:55.395Z,11.80
2018-06-14T04:46:55.344Z,11.20
2018-06-14T04:47:55.349Z,10.10
2018-06-14T04:48:55.352Z,9.80
2018-06-14T04:49:55.343Z,11.90
2018-06-14T04:50:55.344Z,9.90
2018-06-14T04:51:55.342Z,10.80
2018-06-14T04:52:55.342Z,12.40
2018-06-14T04:53:55.345Z,10.20
2018-06-14T04:54:55.341Z,10.30
2018-06-14T04:55:55.344Z,11.10
2018-06-14T04:56:55.345Z,10.90
2018-06-14T04:57:55.345Z,10.50
2018-06-14T04:58:55.349Z,11.00
2018-06-14T04:59:55.346Z,10.30
2018-06-14T05:00:55.348Z,8.70
2018-06-14T05:01:55.348Z,9.30
2018-06-14T05:02:55.359Z,10.90
2018-06-14T05:03:55.353Z,11.00
2018-06-14T05:04:55.367Z,10.00
2018-06-14T05:05:55.360Z,11.00
2018-06-14T05:06:55.358Z,10.50
2018-06-14T05:07:55.371Z,11.10
2018-06-14T05:08:55.364Z,10.20
2018-06-14T05:09:55.366Z,10.70
2018-06-14T05:10:55.367Z,9.90
2018-06-14T05:11:55.378Z,9.90
2018-06-14T05:12:55.373Z,12.40
2018-06-14T05:13:55.386Z,10.30
2018-06-14T05:14:55.382Z,9.40
2018-06-14T05:15:55.389Z,9.90
2018-06-14T05:16:55.383Z,9.20
2018-06-14T05:17:55.404Z,10.10
2018-06-14T05:18:55.394Z,9.40
2018-06-14T05:19:55.391Z,10.70
2018-06-14T05:20:55.398Z,10.10
2018-06-14T05:21:55.397Z,12.70
2018-06-14T05:22:55.390Z,10.40
2018-06-14T05:23:55.392Z,10.70
2018-06-14T05:24:55.397Z,10.90
2018-06-14T05:25:55.396Z,12.40
2018-06-14T05:26:55.399Z,10.80
2018-06-14T05:27:55.400Z,13.70
2018-06-14T05:28:55.401Z,10.10
2018-06-14T05:29:55.391Z,11.10
2018-06-14T05:30:55.386Z,10.30
2018-06-14T05:31:55.407Z,10.00
2018-06-14T05:32:55.385Z,10.10
2018-06-14T05:33:55.397Z,10.60
2018-06-14T05:34:55.381Z,12.00
2018-06-14T05:35:55.391Z,13.00
2018-06-14T05:36:55.380Z,10.60
2018-06-14T05:37:55.375Z,12.00
2018-06-14T05:38:55.373Z,11.30
2018-06-14T05:39:55.384Z,13.20
2018-06-14T05:40:55.374Z,11.60
2018-06-14T05:41:55.368Z,13.20
2018-06-14T05:42:55.364Z,14.20
2018-06-14T05:43:55.365Z,10.90
2018-06-14T05:44:55.357Z,12.50
2018-06-14T05:45:55.355Z,10.30
2018-06-14T05:46:55.366Z,11.30
2018-06-14T05:47:55.350Z,10.60
2018-06-14T05:48:55.345Z,12.00
2018-06-14T05:49:55.344Z,13.40
2018-06-14T05:50:55.344Z,11.50
2018-06-14T05:51:55.339Z,11.50
2018-06-14T05:52:55.333Z,12.10
2018-06-14T05:53:55.332Z,10.50
2018-06-14T05:54:55.324Z,11.90
2018-06-14T05:55:55.321Z,11.80
2018-06-14T05:56:55.319Z,10.00
2018-06-14T05:57:55.314Z,13.10
2018-06-14T05:58:55.320Z,13.00
2018-06-14T05:59:55.311Z,11.30
2018-06-14T06:00:55.307Z,11.00
2018-06-14T06:01:55.299Z,10.20
2018-06-14T06:02:55.349Z,10.50
2018-06-14T06:03:55.305Z,12.60
2018-06-14T06:04:55.296Z,11.30
2018-06-14T06:05:55.290Z,12.40
2018-06-14T06:06:55.282Z,11.70
2018-06-14T06:07:55.277Z,12.80
2018-06-14T06:08:55.282Z,12.00
2018-06-14T06:09:55.271Z,12.60
2018-06-14T06:10:55.274Z,12.10
2018-06-14T06:11:55.293Z,12.90
2018-06-14T06:12:55.268Z,13.50
2018-06-14T06:13:55.261Z,11.20
2018-06-14T06:14:55.253Z,13.50
2018-06-14T06:15:55.264Z,12.00
2018-06-14T06:16:55.246Z,11.80
2018-06-14T06:17:55.242Z,10.20
2018-06-14T06:18:55.237Z,10.70
2018-06-14T06:19:55.293Z,15.40
2018-06-14T06:20:55.230Z,10.60
2018-06-14T06:21:55.227Z,12.70
2018-06-14T06:22:55.220Z,11.10
2018-06-14T06:23:55.219Z,9.80
2018-06-14T06:24:55.214Z,13.70
2018-06-14T06:25:55.220Z,12.30
2018-06-14T06:26:55.207Z,11.00
2018-06-14T06:27:55.213Z,11.40
2018-06-14T06:28:55.209Z,10.80
2018-06-14T06:29:55.197Z,11.00
2018-06-14T06:30:55.199Z,11.70
2018-06-14T06:31:55.195Z,13.30
2018-06-14T06:32:55.183Z,12.70
2018-06-14T06:33:55.181Z,10.10
2018-06-14T06:34:55.177Z,9.50
2018-06-14T06:35:55.174Z,12.80
2018-06-14T06:36:55.183Z,11.80
2018-06-14T06:37:55.175Z,10.70
2018-06-14T06:38:55.165Z,13.30
2018-06-14T06:39:55.167Z,10.30
2018-06-14T06:40:55.167Z,11.20
2018-06-14T06:41:55.163Z,10.40
2018-06-14T06:42:55.157Z,12.80
2018-06-14T06:43:55.154Z,10.80
2018-06-14T06:44:55.151Z,10.20
2018-06-14T06:45:55.141Z,11.60
2018-06-14T06:46:55.136Z,10.30
2018-06-14T06:47:55.134Z,11.30
2018-06-14T06:48:55.128Z,10.40
2018-06-14T06:49:55.127Z,11.10
2018-06-14T06:50:55.122Z,11.50
2018-06-14T06:51:55.120Z,11.90
2018-06-14T06:52:55.124Z,12.70
2018-06-14T06:53:55.126Z,12.30
2018-06-14T06:54:55.108Z,11.40
2018-06-14T06:55:55.106Z,11.10
2018-06-14T06:56:55.101Z,11.30
2018-06-14T06:57:55.104Z,11.10
2018-06-14T06:58:55.147Z,10.00
2018-06-14T06:59:55.091Z,10.70
2018-06-14T07:00:55.088Z,10.50
2018-06-14T07:01:55.087Z,11.10
2018-06-14T07:02:55.096Z,10.40
2018-06-14T07:03:55.080Z,12.10
2018-06-14T07:04:55.075Z,9.90
2018-06-14T07:05:55.090Z,10.80
2018-06-14T07:06:55.068Z,12.00
2018-06-14T07:07:55.065Z,10.00
2018-06-14T07:08:55.065Z,11.10
2018-06-14T07:09:55.061Z,10.60
2018-06-14T07:10:55.070Z,10.40
2018-06-14T07:11:55.111Z,12.70
2018-06-14T07:12:55.050Z,11.10
2018-06-14T07:13:55.061Z,12.10
2018-06-14T07:14:55.047Z,9.80
2018-06-14T07:15:55.039Z,9.50
2018-06-14T07:16:55.036Z,10.10
2018-06-14T07:17:55.036Z,10.00
2018-06-14T07:18:55.030Z,8.90
2018-06-14T07:19:55.037Z,9.80
2018-06-14T07:20:55.025Z,9.30
2018-06-14T07:21:55.140Z,11.30
2018-06-14T07:22:55.026Z,10.80
2018-06-14T07:23:55.019Z,10.50
2018-06-14T07:24:55.012Z,10.90
2018-06-14T07:25:55.022Z,11.40
2018-06-14T07:26:55.019Z,10.50
2018-06-14T07:27:55.002Z,9.00
2018-06-14T07:28:55.000Z,10.10
2018-06-14T07:29:54.998Z,11.30
2018-06-14T07:30:54.995Z,11.20
2018-06-14T07:31:54.989Z,9.70
2018-06-14T07:32:54.988Z,9.40
2018-06-14T07:33:54.990Z,11.10
2018-06-14T07:34:54.980Z,11.30
2018-06-14T07:35:54.977Z,11.30
2018-06-14T07:36:54.973Z,11.00
2018-06-14T07:37:54.975Z,11.00
2018-06-14T07:38:54.969Z,11.10
2018-06-14T07:39:54.965Z,11.70
2018-06-14T07:40:54.975Z,9.40
2018-06-14T07:41:54.964Z,10.20
2018-06-14T07:42:54.968Z,9.00
2018-06-14T07:43:54.961Z,9.50
2018-06-14T07:44:54.950Z,9.10
2018-06-14T07:45:54.951Z,9.90
2018-06-14T07:46:54.945Z,10.40
2018-06-14T07:47:54.941Z,10.00
2018-06-14T07:48:54.938Z,12.10
2018-06-14T07:49:54.936Z,10.00
2018-06-14T07:50:54.930Z,9.90
2018-06-14T07:51:54.930Z,8.70
2018-06-14T07:52:54.930Z,8.50
2018-06-14T07:53:54.933Z,9.10
2018-06-14T07:54:54.919Z,9.10
2018-06-14T07:55:54.922Z,9.10
2018-06-14T07:56:54.916Z,9.00
2018-06-14T07:57:54.920Z,9.40
2018-06-14T07:58:54.916Z,8.60
2018-06-14T07:59:54.917Z,10.60
2018-06-14T08:00:54.905Z,9.60
2018-06-14T08:01:54.910Z,8.30
2018-06-14T08:02:54.905Z,8.00
2018-06-14T08:03:54.902Z,8.00
2018-06-14T08:04:54.898Z,8.40
2018-06-14T08:05:54.895Z,9.40
2018-06-14T08:06:54.898Z,9.20
2018-06-14T08:07:54.894Z,8.60
2018-06-14T08:08:54.900Z,8.40
2018-06-14T08:09:54.898Z,9.30
2018-06-14T08:10:54.887Z,9.30
2018-06-14T08:11:54.888Z,10.20
2018-06-14T08:12:54.880Z,16.90
2018-06-14T08:13:54.877Z,10.60
2018-06-14T08:14:54.873Z,13.40
2018-06-14T08:15:54.878Z,10.90
2018-06-14T08:16:54.880Z,9.10
2018-06-14T08:17:54.884Z,8.20
2018-06-14T08:18:54.962Z,10.50
2018-06-14T08:19:54.871Z,7.80
2018-06-14T08:20:54.944Z,7.90
2018-06-14T08:21:54.863Z,7.50
2018-06-14T08:22:54.997Z,8.10
2018-06-14T08:23:54.917Z,8.20
2018-06-14T08:24:54.871Z,7.40
2018-06-14T08:25:54.858Z,8.20
2018-06-14T08:26:54.863Z,8.20
2018-06-14T08:27:54.852Z,10.80
2018-06-14T08:28:54.859Z,7.00
2018-06-14T08:29:54.861Z,7.20
2018-06-14T08:30:54.846Z,8.80
2018-06-14T08:31:54.845Z,6.90
2018-06-14T08:32:54.847Z,6.80
2018-06-14T08:33:54.846Z,6.80
2018-06-14T08:34:54.846Z,6.70
2018-06-14T08:35:54.841Z,5.90
2018-06-14T08:36:54.837Z,6.80
2018-06-14T08:37:54.833Z,5.50
2018-06-14T08:38:54.831Z,6.60
2018-06-14T08:39:54.832Z,6.50
2018-06-14T08:40:54.833Z,8.70
2018-06-14T08:41:54.835Z,8.40
2018-06-14T08:42:54.830Z,7.70
2018-06-14T08:43:54.837Z,10.10
2018-06-14T08:44:54.870Z,9.70
2018-06-14T08:45:54.825Z,7.30
2018-06-14T08:46:54.827Z,7.10
2018-06-14T08:47:54.826Z,9.20
2018-06-14T08:48:54.817Z,8.60
2018-06-14T08:49:54.816Z,7.40
2018-06-14T08:50:54.813Z,7.30
2018-06-14T08:51:54.811Z,5.90
2018-06-14T08:52:54.819Z,7.20
2018-06-14T08:53:54.814Z,8.60
2018-06-14T08:54:54.821Z,7.00
2018-06-14T08:55:54.808Z,6.00
2018-06-14T08:56:54.803Z,7.00
2018-06-14T08:57:54.800Z,6.70
2018-06-14T08:58:54.799Z,5.60
2018-06-14T08:59:54.799Z,7.20
2018-06-14T09:00:54.801Z,8.00
2018-06-14T09:01:54.794Z,6.70
2018-06-14T09:02:54.792Z,7.20
2018-06-14T09:03:54.800Z,7.90
2018-06-14T09:04:54.795Z,8.00
2018-06-14T09:05:54.791Z,7.10
2018-06-14T09:06:54.787Z,6.00
2018-06-14T09:07:54.785Z,5.50
2018-06-14T09:08:54.785Z,6.70
2018-06-14T09:09:54.792Z,5.70
2018-06-14T09:10:54.783Z,6.20
2018-06-14T09:11:54.784Z,8.00
2018-06-14T09:12:54.785Z,6.20
2018-06-14T09:13:54.779Z,9.20
2018-06-14T09:14:54.779Z,9.40
2018-06-14T09:15:54.782Z,6.90
2018-06-14T09:16:54.775Z,7.30
2018-06-14T09:17:54.777Z,7.30
2018-06-14T09:18:54.773Z,6.50
2018-06-14T09:19:54.769Z,6.50
2018-06-14T09:20:54.769Z,7.00
2018-06-14T09:21:54.764Z,7.00
2018-06-14T09:22:54.775Z,5.30
2018-06-14T09:23:54.769Z,5.90
2018-06-14T09:24:54.757Z,7.30
2018-06-14T09:25:54.757Z,8.90
2018-06-14T09:26:54.756Z,7.80
2018-06-14T09:27:54.753Z,7.70
2018-06-14T09:28:54.752Z,8.20
2018-06-14T09:29:54.766Z,6.10
2018-06-14T09:30:54.758Z,9.10
2018-06-14T09:31:54.753Z,9.40
2018-06-14T09:32:54.743Z,6.80
2018-06-14T09:33:54.750Z,6.90
2018-06-14T09:34:54.739Z,7.30
2018-06-14T09:35:54.745Z,7.30
2018-06-14T09:36:54.734Z,7.20
2018-06-14T09:37:54.732Z,7.70
2018-06-14T09:38:54.745Z,6.40
2018-06-14T09:39:54.733Z,7.70
2018-06-14T09:40:54.735Z,6.50
2018-06-14T09:41:54.725Z,5.40
2018-06-14T09:42:54.803Z,5.80
2018-06-14T09:43:54.729Z,5.30
2018-06-14T09:44:54.719Z,7.70
2018-06-14T09:45:54.719Z,4.90
2018-06-14T09:46:54.720Z,6.30
2018-06-14T09:47:54.715Z,7.10
2018-06-14T09:48:54.719Z,7.10
2018-06-14T09:49:54.715Z,6.30
2018-06-14T09:50:54.722Z,6.70
2018-06-14T09:51:54.710Z,6.20
2018-06-14T09:52:54.706Z,11.60
2018-06-14T09:53:54.714Z,6.20
2018-06-14T09:54:54.703Z,5.70
2018-06-14T09:55:54.703Z,6.70
2018-06-14T09:56:54.699Z,6.90
2018-06-14T09:57:54.698Z,7.10
2018-06-14T09:58:54.705Z,7.50
2018-06-14T09:59:54.704Z,5.60
2018-06-14T10:00:54.700Z,6.70
2018-06-14T10:01:54.694Z,7.90
2018-06-14T10:02:54.692Z,6.00
2018-06-14T10:03:54.702Z,6.70
2018-06-14T10:04:54.694Z,6.90
2018-06-14T10:05:54.691Z,7.10
2018-06-14T10:06:54.701Z,7.70
2018-06-14T10:07:54.692Z,7.10
2018-06-14T10:08:54.688Z,6.50
2018-06-14T10:09:54.692Z,5.60
2018-06-14T10:10:54.695Z,7.20
2018-06-14T10:11:54.691Z,6.80
2018-06-14T10:12:54.686Z,7.80
2018-06-14T10:13:54.696Z,5.00
2018-06-14T10:14:54.680Z,8.10
2018-06-14T10:15:54.679Z,5.30
2018-06-14T10:16:54.679Z,6.90
2018-06-14T10:17:54.681Z,5.00
2018-06-14T10:18:54.683Z,5.50
2018-06-14T10:19:54.675Z,6.80
2018-06-14T10:20:54.676Z,4.90
2018-06-14T10:21:54.680Z,4.50
2018-06-14T10:22:54.675Z,6.30
2018-06-14T10:23:54.678Z,7.10
2018-06-14T10:24:54.685Z,7.10
2018-06-14T10:25:54.675Z,5.30
2018-06-14T10:26:54.674Z,5.10
2018-06-14T10:27:54.672Z,7.80
2018-06-14T10:28:54.681Z,5.40
2018-06-14T10:29:54.684Z,5.30
2018-06-14T10:30:54.671Z,6.00
2018-06-14T10:31:54.679Z,5.50
2018-06-14T10:32:54.676Z,5.10
2018-06-14T10:33:54.684Z,5.30
2018-06-14T10:34:54.678Z,7.30
2018-06-14T10:35:54.669Z,5.30
2018-06-14T10:36:54.669Z,5.50
2018-06-14T10:37:54.671Z,5.00
2018-06-14T10:38:54.670Z,8.00
2018-06-14T10:39:54.677Z,4.70
2018-06-14T10:40:54.677Z,4.40
2018-06-14T10:41:54.675Z,7.60
2018-06-14T10:42:54.678Z,5.80
2018-06-14T10:43:54.673Z,6.10
2018-06-14T10:44:54.673Z,5.60
2018-06-14T10:45:54.667Z,4.70
2018-06-14T10:46:54.666Z,4.30
2018-06-14T10:47:54.667Z,4.30
2018-06-14T10:48:54.668Z,4.30
2018-06-14T10:49:54.666Z,5.80
2018-06-14T10:50:54.675Z,5.50
2018-06-14T10:51:54.672Z,5.60
2018-06-14T10:52:54.664Z,4.50
2018-06-14T10:53:54.671Z,5.60
2018-06-14T10:54:54.676Z,7.10
2018-06-14T10:55:54.663Z,6.40
2018-06-14T10:56:54.665Z,5.70
2018-06-14T10:57:54.661Z,6.00
2018-06-14T10:58:54.660Z,6.10
2018-06-14T10:59:54.670Z,4.80
2018-06-14T11:00:54.668Z,5.60
2018-06-14T11:01:54.657Z,4.20
2018-06-14T11:02:54.656Z,4.40
2018-06-14T11:03:54.655Z,6.20
2018-06-14T11:04:54.663Z,5.30
2018-06-14T11:05:54.706Z,6.90
2018-06-14T11:06:54.654Z,5.20
2018-06-14T11:07:54.651Z,6.50
2018-06-14T11:08:54.658Z,5.90
2018-06-14T11:09:54.649Z,4.80
2018-06-14T11:10:54.653Z,6.90
2018-06-14T11:11:54.648Z,5.80
2018-06-14T11:12:54.647Z,5.30
2018-06-14T11:13:54.646Z,5.30
2018-06-14T11:14:54.647Z,5.90
2018-06-14T11:15:54.649Z,4.30
2018-06-14T11:16:54.655Z,3.80
2018-06-14T11:17:54.641Z,4.80
2018-06-14T11:18:54.645Z,4.50
2018-06-14T11:19:54.650Z,4.70
2018-06-14T11:20:54.644Z,5.30
2018-06-14T11:21:54.647Z,5.30
2018-06-14T11:22:54.645Z,5.40
2018-06-14T11:23:54.652Z,5.50
2018-06-14T11:24:54.645Z,4.50
2018-06-14T11:25:54.644Z,6.70
2018-06-14T11:26:54.638Z,5.90
2018-06-14T11:27:54.636Z,5.50
2018-06-14T11:28:54.635Z,6.40
2018-06-14T11:29:54.666Z,6.50
2018-06-14T11:30:54.638Z,5.40
2018-06-14T11:31:54.634Z,8.00
2018-06-14T11:32:54.635Z,5.50
2018-06-14T11:33:54.633Z,5.30
2018-06-14T11:34:54.634Z,6.70
2018-06-14T11:35:54.632Z,6.00
2018-06-14T11:36:54.630Z,6.30
2018-06-14T11:37:54.636Z,10.10
2018-06-14T11:38:54.630Z,4.10
2018-06-14T11:39:54.632Z,4.00
2018-06-14T11:40:54.631Z,4.40
2018-06-14T11:41:54.631Z,4.80
2018-06-14T11:42:54.634Z,8.20
2018-06-14T11:43:54.630Z,5.40
2018-06-14T11:44:54.633Z,5.20
2018-06-14T11:45:54.631Z,6.00
2018-06-14T11:46:54.629Z,4.60
2018-06-14T11:47:54.628Z,5.50
2018-06-14T11:48:54.629Z,5.00
2018-06-14T11:49:54.627Z,6.60
2018-06-14T11:50:54.625Z,6.00
2018-06-14T11:51:54.636Z,4.10
2018-06-14T11:52:54.629Z,6.10
2018-06-14T11:53:54.629Z,6.90
2018-06-14T11:54:54.626Z,5.00
2018-06-14T11:55:54.631Z,4.30
2018-06-14T11:56:54.634Z,6.80
2018-06-14T11:57:54.627Z,4.70
2018-06-14T11:58:54.639Z,5.80
2018-06-14T11:59:54.630Z,4.90
2018-06-14T12:00:54.634Z,4.30
2018-06-14T12:01:54.627Z,4.40
2018-06-14T12:02:54.621Z,5.20
2018-06-14T12:03:54.626Z,7.60
2018-06-14T12:04:54.629Z,5.20
2018-06-14T12:05:54.626Z,5.70
2018-06-14T12:06:54.623Z,5.00
2018-06-14T12:07:54.621Z,5.90
2018-06-14T12:08:54.622Z,5.90
2018-06-14T12:09:54.627Z,6.50
2018-06-14T12:10:54.627Z,5.00
2018-06-14T12:11:54.631Z,5.80
2018-06-14T12:12:54.634Z,5.40
2018-06-14T12:13:54.622Z,4.60
2018-06-14T12:14:54.622Z,5.90
2018-06-14T12:15:54.631Z,7.60
2018-06-14T12:16:54.631Z,4.50
2018-06-14T12:17:54.634Z,5.90
2018-06-14T12:18:54.625Z,4.20
2018-06-14T12:19:54.624Z,4.70
2018-06-14T12:20:54.623Z,5.70
2018-06-14T12:21:54.621Z,5.20
2018-06-14T12:22:54.621Z,4.70
2018-06-14T12:23:54.629Z,4.80
2018-06-14T12:24:54.623Z,5.50
2018-06-14T12:25:54.635Z,7.00
2018-06-14T12:26:54.622Z,6.90
2018-06-14T12:27:54.621Z,5.50
2018-06-14T12:28:54.623Z,6.50
2018-06-14T12:29:54.629Z,4.80
2018-06-14T12:30:54.622Z,6.60
2018-06-14T12:31:54.637Z,4.40
2018-06-14T12:32:54.635Z,4.80
2018-06-14T12:33:54.625Z,4.30
2018-06-14T12:34:54.632Z,4.30
2018-06-14T12:35:54.631Z,4.30
2018-06-14T12:36:54.627Z,4.20
2018-06-14T12:37:54.629Z,5.10
2018-06-14T12:38:54.634Z,6.30
2018-06-14T12:39:54.630Z,3.30
2018-06-14T12:40:54.629Z,4.60
2018-06-14T12:41:54.633Z,6.50
2018-06-14T12:42:54.630Z,4.50
2018-06-14T12:43:54.647Z,7.30
2018-06-14T12:44:54.634Z,4.50
2018-06-14T12:45:54.640Z,3.90
2018-06-14T12:46:54.634Z,4.10
2018-06-14T12:47:54.634Z,3.80
2018-06-14T12:48:54.637Z,4.50
2018-06-14T12:49:54.639Z,4.70
2018-06-14T12:50:54.644Z,3.80
2018-06-14T12:51:54.637Z,4.00
2018-06-14T12:52:54.639Z,5.90
2018-06-14T12:53:54.643Z,5.20
2018-06-14T12:54:54.643Z,5.00
2018-06-14T12:55:54.640Z,5.20
2018-06-14T12:56:54.647Z,4.20
2018-06-14T12:57:54.655Z,4.00
2018-06-14T12:58:54.641Z,5.00
2018-06-14T12:59:54.643Z,5.60
2018-06-14T13:00:54.645Z,6.60
2018-06-14T13:01:54.653Z,4.50
2018-06-14T13:02:54.644Z,6.10
2018-06-14T13:03:54.644Z,4.00